createdAt,value
2022-11-13T00:00:24.387Z,2.83
2022-11-13T00:03:11.293Z,2.58
2022-11-13T00:06:02.847Z,2.25
2022-11-13T00:08:54.812Z,4.90
2022-11-13T00:11:41.785Z,2.83
2022-11-13T00:14:28.685Z,2.63
2022-11-13T00:17:15.557Z,3.40
2022-11-13T00:20:02.309Z,2.58
2022-11-13T00:22:50.611Z,3.30
2022-11-13T00:25:37.485Z,3.03
2022-11-13T00:28:24.460Z,3.40
2022-11-13T00:31:13.947Z,2.45
2022-11-13T00:39:59.649Z,3.92
2022-11-13T00:42:47.004Z,2.65
2022-11-13T00:45:33.978Z,3.70
2022-11-13T00:48:21.359Z,3.38
2022-11-13T00:51:08.752Z,2.85
2022-11-13T00:53:55.937Z,2.97
2022-11-13T00:56:44.125Z,3.20
2022-11-13T00:59:31.192Z,3.50
2022-11-13T01:02:18.048Z,3.30
2022-11-13T01:05:05.444Z,2.83
2022-11-13T01:07:52.653Z,3.17
2022-11-13T01:10:42.856Z,2.65
2022-11-13T01:13:31.359Z,2.83
2022-11-13T01:16:20.375Z,3.78
2022-11-13T01:19:07.725Z,3.78
2022-11-13T01:21:54.567Z,4.03
2022-11-13T01:24:42.071Z,3.00
2022-11-13T01:27:29.176Z,3.50
2022-11-13T01:30:18.235Z,3.90
2022-11-13T01:33:05.460Z,4.57
2022-11-13T01:35:52.552Z,3.05
2022-11-13T01:38:39.864Z,3.65
2022-11-13T01:41:29.055Z,4.13
2022-11-13T01:44:18.825Z,3.35
2022-11-13T01:47:07.504Z,2.88
2022-11-13T01:49:57.260Z,4.07
2022-11-13T01:52:45.065Z,4.07
2022-11-13T01:55:32.470Z,3.42
2022-11-13T01:58:19.484Z,5.05
2022-11-13T02:01:06.436Z,4.13
2022-11-13T02:03:54.740Z,4.40
2022-11-13T02:06:44.438Z,5.57
2022-11-13T02:09:36.876Z,3.92
2022-11-13T02:12:31.783Z,5.38
2022-11-13T02:15:23.481Z,3.90
2022-11-13T02:18:12.924Z,4.68
2022-11-13T02:21:11.709Z,5.00
2022-11-13T02:24:05.495Z,5.15
2022-11-13T02:26:57.576Z,6.68
2022-11-13T02:29:44.491Z,5.47
2022-11-13T02:32:31.300Z,4.32
2022-11-13T02:35:21.289Z,3.75
2022-11-13T02:38:08.167Z,4.65
2022-11-13T02:40:55.183Z,5.93
2022-11-13T02:43:43.324Z,6.10
2022-11-13T02:46:30.231Z,7.82
2022-11-13T02:49:17.102Z,6.35
2022-11-13T02:52:04.051Z,5.68
2022-11-13T02:54:51.119Z,5.50
2022-11-13T02:57:37.863Z,6.47
2022-11-13T03:00:26.154Z,5.95
2022-11-13T03:06:00.435Z,6.50
2022-11-13T03:08:47.456Z,5.75
2022-11-13T03:11:34.439Z,4.70
2022-11-13T03:14:21.540Z,5.68
2022-11-13T03:17:09.664Z,5.68
2022-11-13T03:19:56.494Z,5.25
2022-11-13T03:22:43.406Z,7.40
2022-11-13T03:25:30.335Z,6.15
2022-11-13T03:28:17.196Z,5.20
2022-11-13T03:31:05.268Z,4.65
2022-11-13T03:33:55.005Z,5.53
2022-11-13T03:36:41.897Z,6.10
2022-11-13T03:39:28.729Z,4.90
2022-11-13T03:42:15.618Z,4.78
2022-11-13T03:45:02.621Z,5.53
2022-11-13T03:47:49.819Z,5.45
2022-11-13T03:50:44.277Z,6.93
2022-11-13T03:53:32.282Z,5.03
2022-11-13T03:56:19.173Z,5.15
2022-11-13T03:59:06.009Z,6.20
2022-11-13T04:01:53.051Z,4.05
2022-11-13T04:04:40.068Z,4.90
2022-11-13T04:07:28.397Z,4.72
2022-11-13T04:10:15.546Z,5.85
2022-11-13T04:13:02.892Z,5.43
2022-11-13T04:15:50.104Z,5.03
2022-11-13T04:18:36.908Z,5.63
2022-11-13T04:21:23.761Z,6.38
2022-11-13T04:24:12.189Z,8.05
2022-11-13T04:26:58.953Z,5.43
2022-11-13T04:29:45.753Z,6.93
2022-11-13T04:32:32.840Z,6.43
2022-11-13T04:35:20.023Z,7.00
2022-11-13T04:38:06.870Z,7.13
2022-11-13T04:41:15.420Z,6.72
2022-11-13T04:44:01.564Z,5.55
2022-11-13T04:46:48.753Z,5.43
2022-11-13T04:49:35.491Z,6.85
2022-11-13T04:52:22.344Z,5.60
2022-11-13T04:55:10.901Z,5.65
2022-11-13T04:57:58.975Z,6.28
2022-11-13T05:00:45.801Z,6.13
2022-11-13T05:03:32.672Z,7.32
2022-11-13T05:06:19.923Z,6.20
2022-11-13T05:09:06.949Z,5.28
2022-11-13T05:11:53.977Z,5.47
2022-11-13T05:14:42.560Z,6.50
2022-11-13T05:17:29.816Z,6.10
2022-11-13T05:20:17.407Z,5.10
2022-11-13T05:23:04.640Z,7.65
2022-11-13T05:25:52.253Z,4.78
2022-11-13T05:28:39.716Z,6.22
2022-11-13T05:31:28.666Z,5.28
2022-11-13T05:34:16.363Z,5.45
2022-11-13T05:37:03.246Z,5.18
2022-11-13T05:39:50.087Z,5.95
2022-11-13T05:42:37.111Z,5.18
2022-11-13T05:45:24.155Z,5.75
2022-11-13T05:48:12.361Z,5.88
2022-11-13T05:51:03.496Z,5.55
2022-11-13T05:53:50.580Z,6.95
2022-11-13T05:56:37.767Z,4.57
2022-11-13T05:59:25.036Z,5.40
2022-11-13T06:02:12.230Z,5.28
2022-11-13T06:05:00.443Z,6.82
2022-11-13T06:07:50.202Z,6.97
2022-11-13T06:10:37.308Z,5.72
2022-11-13T06:13:24.127Z,5.53
2022-11-13T06:16:13.701Z,4.80
2022-11-13T06:19:02.952Z,5.53
2022-11-13T06:21:51.541Z,5.20
2022-11-13T06:24:38.411Z,6.75
2022-11-13T06:27:25.265Z,6.78
2022-11-13T06:30:15.784Z,5.80
2022-11-13T06:33:02.931Z,4.72
2022-11-13T06:35:49.712Z,7.35
2022-11-13T06:38:39.286Z,6.55
2022-11-13T06:41:29.327Z,7.13
2022-11-13T06:44:16.467Z,5.78
2022-11-13T06:47:03.481Z,4.85
2022-11-13T06:49:50.315Z,4.65
2022-11-13T06:52:37.197Z,4.50
2022-11-13T06:55:25.731Z,6.22
2022-11-13T06:58:12.825Z,6.68
2022-11-13T07:00:59.625Z,6.47
2022-11-13T07:03:46.675Z,4.90
2022-11-13T07:06:39.067Z,6.13
2022-11-13T07:09:27.423Z,6.68
2022-11-13T07:12:15.717Z,5.13
2022-11-13T07:15:02.712Z,6.03
2022-11-13T07:17:49.666Z,6.95
2022-11-13T07:20:36.562Z,6.18
2022-11-13T07:23:24.181Z,6.18
2022-11-13T07:26:11.627Z,5.43
2022-11-13T07:29:00.300Z,6.28
2022-11-13T07:31:47.101Z,8.20
2022-11-13T07:34:33.932Z,5.97
2022-11-13T07:37:21.267Z,5.50
2022-11-13T07:40:09.004Z,5.95
2022-11-13T07:43:00.158Z,6.25
2022-11-13T07:45:54.313Z,7.15
2022-11-13T07:48:41.231Z,6.03
2022-11-13T07:51:28.208Z,7.50
2022-11-13T07:54:15.076Z,6.95
2022-11-13T07:57:01.948Z,6.35
2022-11-13T07:59:48.809Z,5.60
2022-11-13T08:02:38.041Z,6.20
2022-11-13T08:05:25.040Z,5.22
2022-11-13T08:08:13.637Z,7.47
2022-11-13T08:13:50.889Z,6.93
2022-11-13T08:16:37.963Z,7.53
2022-11-13T08:19:26.175Z,5.75
2022-11-13T08:22:13.112Z,7.30
2022-11-13T08:25:01.307Z,5.07
2022-11-13T08:27:48.191Z,6.05
2022-11-13T08:30:35.157Z,6.72
2022-11-13T08:33:22.214Z,5.35
2022-11-13T08:36:11.698Z,5.53
2022-11-13T08:38:58.578Z,6.30
2022-11-13T08:41:45.325Z,5.07
2022-11-13T08:44:32.838Z,6.30
2022-11-13T08:47:19.906Z,4.57
2022-11-13T08:50:07.928Z,5.93
2022-11-13T08:52:59.077Z,5.97
2022-11-13T08:55:48.593Z,5.80
2022-11-13T08:58:35.615Z,4.25
2022-11-13T09:01:23.500Z,3.75
2022-11-13T09:04:10.563Z,4.30
2022-11-13T09:06:57.709Z,5.53
2022-11-13T09:09:45.854Z,5.18
2022-11-13T09:12:32.795Z,4.55
2022-11-13T09:15:24.310Z,4.38
2022-11-13T09:18:11.878Z,4.85
2022-11-13T09:21:02.720Z,5.68
2022-11-13T09:23:50.280Z,3.95
2022-11-13T09:26:38.511Z,4.07
2022-11-13T09:32:14.309Z,4.10
2022-11-13T09:35:01.070Z,4.03
2022-11-13T09:37:52.387Z,4.03
2022-11-13T09:40:44.650Z,3.97
2022-11-13T09:43:39.544Z,4.40
2022-11-13T09:46:37.881Z,3.67
2022-11-13T09:49:29.598Z,2.80
2022-11-13T09:52:20.144Z,4.90
2022-11-13T09:55:11.870Z,3.55
2022-11-13T09:58:04.612Z,4.07
2022-11-13T10:00:53.577Z,3.53
2022-11-13T10:04:00.512Z,2.80
2022-11-13T10:07:04.968Z,3.22
2022-11-13T10:10:16.301Z,2.78
2022-11-13T10:13:05.130Z,3.22
2022-11-13T10:16:00.781Z,3.17
2022-11-13T10:18:51.660Z,3.70
2022-11-13T10:21:44.680Z,3.10
2022-11-13T10:24:38.552Z,4.65
2022-11-13T10:27:25.755Z,2.97
2022-11-13T10:30:17.247Z,3.70
2022-11-13T10:33:08.488Z,3.90
2022-11-13T10:35:59.966Z,3.92
2022-11-13T10:38:51.012Z,4.68
2022-11-13T10:41:48.596Z,3.92
2022-11-13T10:44:36.569Z,3.80
2022-11-13T10:47:49.055Z,4.93
2022-11-13T10:50:35.502Z,3.80
2022-11-13T10:53:22.399Z,4.43
2022-11-13T10:56:15.521Z,4.38
2022-11-13T10:59:05.635Z,3.33
2022-11-13T11:01:53.443Z,4.20
2022-11-13T11:04:40.659Z,3.78
2022-11-13T11:07:28.900Z,5.47
2022-11-13T11:13:22.323Z,4.47
2022-11-13T11:16:11.998Z,3.97
2022-11-13T11:19:02.738Z,3.83
2022-11-13T11:21:53.257Z,3.85
2022-11-13T11:24:46.390Z,4.55
2022-11-13T11:27:37.813Z,4.00
2022-11-13T11:30:27.645Z,3.90
2022-11-13T11:33:20.699Z,4.45
2022-11-13T11:36:16.855Z,2.80
2022-11-13T11:39:27.738Z,3.30
2022-11-13T11:42:25.591Z,2.97
2022-11-13T11:45:17.238Z,3.13
2022-11-13T11:48:06.215Z,3.97
2022-11-13T11:51:01.839Z,3.83
2022-11-13T11:53:58.642Z,4.30
2022-11-13T11:56:50.096Z,3.65
2022-11-13T12:00:00.901Z,3.78
2022-11-13T12:03:03.651Z,4.25
2022-11-13T12:06:02.772Z,3.60
2022-11-13T12:08:55.392Z,4.70
2022-11-13T12:11:52.078Z,3.67
2022-11-13T12:14:49.472Z,4.43
2022-11-13T12:17:47.935Z,4.55
2022-11-13T12:20:42.778Z,3.28
2022-11-13T12:23:41.515Z,3.45
2022-11-13T12:26:35.226Z,2.88
2022-11-13T12:29:34.803Z,3.05
2022-11-13T12:32:42.116Z,4.00
2022-11-13T12:35:30.927Z,3.60
2022-11-13T12:38:29.276Z,3.67
2022-11-13T12:41:29.715Z,2.75
2022-11-13T12:44:24.917Z,2.83
2022-11-13T12:47:12.063Z,4.25
2022-11-13T12:50:06.707Z,3.25
2022-11-13T12:53:02.218Z,3.38
2022-11-13T12:56:00.188Z,3.53
2022-11-13T12:59:23.665Z,2.78
2022-11-13T13:02:26.984Z,4.20
2022-11-13T13:05:33.659Z,3.33
2022-11-13T13:08:44.945Z,4.28
2022-11-13T13:11:42.490Z,3.20
2022-11-13T13:14:55.920Z,3.38
2022-11-13T13:17:43.225Z,3.28
2022-11-13T13:20:35.643Z,3.10
2022-11-13T13:23:29.356Z,2.78
2022-11-13T13:26:19.660Z,2.50
2022-11-13T13:29:17.894Z,3.13
2022-11-13T13:32:19.413Z,2.58
2022-11-13T13:35:15.765Z,2.90
2022-11-13T13:38:21.783Z,2.60
2022-11-13T13:41:25.648Z,2.70
2022-11-13T13:44:32.597Z,3.10
2022-11-13T13:47:25.357Z,3.17
2022-11-13T13:50:17.531Z,2.95
2022-11-13T13:53:06.381Z,2.92
2022-11-13T13:55:56.348Z,2.25
2022-11-13T13:58:44.201Z,2.40
2022-11-13T14:01:33.333Z,2.45
2022-11-13T14:04:22.205Z,3.35
2022-11-13T14:07:21.829Z,4.22
2022-11-13T14:10:18.576Z,3.08
2022-11-13T14:13:05.958Z,3.00
2022-11-13T14:16:04.117Z,3.45
2022-11-13T14:18:51.017Z,2.60
2022-11-13T14:21:38.110Z,2.92
2022-11-13T14:24:28.688Z,2.90
2022-11-13T14:27:20.466Z,3.88
2022-11-13T14:30:23.743Z,4.00
2022-11-13T14:33:12.206Z,3.03
2022-11-13T14:36:00.351Z,3.22
2022-11-13T14:38:52.022Z,3.55
2022-11-13T14:41:42.619Z,3.70
2022-11-13T14:44:33.325Z,3.15
2022-11-13T14:47:31.753Z,4.90
2022-11-13T14:50:24.721Z,2.63
2022-11-13T14:53:12.195Z,3.17
2022-11-13T14:56:01.358Z,4.55
2022-11-13T14:58:48.667Z,2.47
2022-11-13T15:01:37.125Z,3.35
2022-11-13T15:04:24.953Z,4.28
2022-11-13T15:07:30.381Z,3.35
2022-11-13T15:10:19.135Z,3.53
2022-11-13T15:13:12.731Z,3.78
2022-11-13T15:16:00.094Z,2.70
2022-11-13T15:18:51.672Z,3.22
2022-11-13T15:21:38.756Z,5.65
2022-11-13T15:24:25.475Z,4.15
2022-11-13T15:27:15.548Z,5.10
2022-11-13T15:30:02.585Z,5.05
2022-11-13T15:32:53.757Z,3.83
2022-11-13T15:35:42.632Z,3.97
2022-11-13T15:38:29.732Z,3.85
2022-11-13T15:41:19.782Z,3.35
2022-11-13T15:44:12.849Z,4.78
2022-11-13T15:47:00.095Z,4.57
2022-11-13T15:50:09.808Z,3.85
2022-11-13T15:52:57.872Z,5.57
2022-11-13T15:55:46.822Z,6.10
2022-11-13T15:58:34.653Z,4.88
2022-11-13T16:01:22.348Z,5.00
2022-11-13T16:04:11.919Z,4.13
2022-11-13T16:06:59.147Z,6.25
2022-11-13T16:09:48.558Z,4.32
2022-11-13T16:12:35.902Z,5.28
2022-11-13T16:15:22.925Z,4.85
2022-11-13T16:18:18.005Z,4.28
2022-11-13T16:21:05.175Z,4.57
2022-11-13T16:23:52.101Z,4.68
2022-11-13T16:26:42.315Z,5.03
2022-11-13T16:29:30.899Z,5.30
2022-11-13T16:32:18.258Z,4.20
2022-11-13T16:35:05.662Z,4.47
2022-11-13T16:37:52.441Z,5.00
2022-11-13T16:40:41.435Z,5.07
2022-11-13T16:43:30.261Z,4.28
2022-11-13T16:46:21.970Z,5.55
2022-11-13T16:49:16.715Z,5.90
2022-11-13T16:52:03.598Z,7.03
2022-11-13T16:54:51.458Z,5.32
2022-11-13T16:57:39.020Z,4.90
2022-11-13T17:00:27.440Z,6.63
2022-11-13T17:03:14.511Z,5.97
2022-11-13T17:06:01.424Z,5.55
2022-11-13T17:08:50.250Z,13.27
2022-11-13T17:11:37.680Z,10.13
2022-11-13T17:14:24.560Z,18.80
2022-11-13T17:17:14.362Z,15.85
2022-11-13T17:20:01.537Z,7.30
2022-11-13T17:22:49.301Z,8.50
2022-11-13T17:25:36.479Z,11.25
2022-11-13T17:28:23.369Z,9.82
2022-11-13T17:31:12.513Z,9.10
2022-11-13T17:34:01.224Z,13.25
2022-11-13T17:36:48.143Z,11.30
2022-11-13T17:39:35.052Z,17.00
2022-11-13T17:42:21.971Z,24.75
2022-11-13T17:45:09.926Z,26.83
2022-11-13T17:47:57.061Z,22.75
2022-11-13T17:50:45.645Z,16.60
2022-11-13T17:53:32.782Z,16.27
2022-11-13T17:56:20.176Z,15.00
2022-11-13T17:59:08.175Z,13.70
2022-11-13T18:01:55.260Z,17.23
2022-11-13T18:04:42.236Z,17.27
2022-11-13T18:07:30.629Z,12.32
2022-11-13T18:13:05.197Z,88.93
2022-11-13T18:15:52.148Z,56.70
2022-11-13T18:18:39.114Z,17.35
2022-11-13T18:21:28.116Z,18.70
2022-11-13T18:24:19.045Z,18.98
2022-11-13T18:27:06.964Z,19.27
2022-11-13T18:29:53.903Z,18.73
2022-11-13T18:32:40.912Z,18.85
2022-11-13T18:35:27.793Z,23.83
2022-11-13T18:38:15.315Z,18.77
2022-11-13T18:41:07.237Z,15.48
2022-11-13T18:43:54.944Z,15.48
2022-11-13T18:46:43.509Z,20.13
2022-11-13T18:49:30.899Z,22.45
2022-11-13T18:52:18.796Z,15.80
2022-11-13T18:55:06.778Z,18.65
2022-11-13T18:57:55.894Z,17.08
2022-11-13T19:00:44.171Z,15.23
2022-11-13T19:03:31.889Z,17.60
2022-11-13T19:06:21.614Z,14.82
2022-11-13T19:09:12.834Z,14.05
2022-11-13T19:12:00.393Z,13.70
2022-11-13T19:14:49.232Z,15.05
2022-11-13T19:17:37.461Z,13.25
2022-11-13T19:20:25.001Z,15.50
2022-11-13T19:23:13.711Z,15.77
2022-11-13T19:26:02.244Z,13.70
2022-11-13T19:28:51.819Z,13.60
2022-11-13T19:31:41.379Z,17.38
2022-11-13T19:34:29.126Z,16.60
2022-11-13T19:37:19.284Z,15.25
2022-11-13T19:40:07.601Z,14.68
2022-11-13T19:42:56.166Z,16.63
2022-11-13T19:45:43.952Z,15.98
2022-11-13T19:48:33.013Z,17.10
2022-11-13T19:51:23.972Z,18.98
2022-11-13T19:54:11.380Z,15.27
2022-11-13T19:56:58.466Z,16.15
2022-11-13T19:59:45.457Z,16.42
2022-11-13T20:02:32.424Z,16.65
2022-11-13T20:05:20.919Z,17.48
2022-11-13T20:08:08.037Z,16.02
2022-11-13T20:10:54.854Z,15.95
2022-11-13T20:13:42.568Z,14.98
2022-11-13T20:16:30.303Z,16.90
2022-11-13T20:19:17.349Z,15.77
2022-11-13T20:22:05.614Z,16.75
2022-11-13T20:24:52.511Z,18.95
2022-11-13T20:27:41.872Z,16.38
2022-11-13T20:30:32.878Z,17.67
2022-11-13T20:33:22.604Z,18.65
2022-11-13T20:36:10.123Z,16.88
2022-11-13T20:38:58.683Z,17.05
2022-11-13T20:41:45.619Z,22.33
2022-11-13T20:44:32.620Z,19.45
2022-11-13T20:47:19.563Z,19.65
2022-11-13T20:50:07.593Z,17.50
2022-11-13T20:52:54.638Z,16.58
2022-11-13T20:55:42.758Z,14.32
2022-11-13T20:58:29.884Z,17.75
2022-11-13T21:01:18.937Z,15.90
2022-11-13T21:04:06.340Z,20.70
2022-11-13T21:06:53.269Z,18.00
2022-11-13T21:09:40.278Z,20.00
2022-11-13T21:12:28.792Z,16.55
2022-11-13T21:15:16.184Z,14.93
2022-11-13T21:18:03.082Z,19.17
2022-11-13T21:20:50.428Z,14.80
2022-11-13T21:23:38.323Z,14.93
2022-11-13T21:26:25.855Z,16.95
2022-11-13T21:29:14.093Z,18.75
2022-11-13T21:32:01.109Z,17.10
2022-11-13T21:34:48.088Z,16.48
2022-11-13T21:37:35.074Z,17.48
2022-11-13T21:40:22.136Z,18.58
2022-11-13T21:43:09.115Z,16.10
2022-11-13T21:46:04.444Z,15.75
2022-11-13T21:48:57.054Z,14.25
2022-11-13T21:51:44.650Z,15.98
2022-11-13T21:54:31.679Z,14.98
2022-11-13T21:57:19.045Z,16.40
2022-11-13T22:00:07.375Z,15.85
2022-11-13T22:02:55.563Z,14.15
2022-11-13T22:05:42.798Z,16.02
2022-11-13T22:08:30.422Z,16.17
2022-11-13T22:11:17.715Z,14.82
2022-11-13T22:14:05.550Z,15.20
2022-11-13T22:16:52.484Z,17.15
2022-11-13T22:19:40.838Z,18.38
2022-11-13T22:22:27.721Z,15.93
2022-11-13T22:25:14.694Z,20.83
2022-11-13T22:28:01.804Z,16.30
2022-11-13T22:30:48.771Z,21.92
2022-11-13T22:33:37.052Z,17.77
2022-11-13T22:36:27.061Z,18.83
2022-11-13T22:39:13.880Z,18.10
2022-11-13T22:42:00.847Z,16.35
2022-11-13T22:44:56.104Z,18.85
2022-11-13T22:47:43.608Z,17.70
2022-11-13T22:50:30.341Z,16.98
2022-11-13T22:53:18.463Z,17.08
2022-11-13T22:56:06.989Z,16.50
2022-11-13T22:58:54.580Z,15.52
2022-11-13T23:01:43.836Z,16.52
2022-11-13T23:04:30.823Z,18.73
2022-11-13T23:07:18.280Z,16.83
2022-11-13T23:10:07.774Z,15.70
2022-11-13T23:12:54.791Z,20.70
2022-11-13T23:15:41.587Z,23.17
2022-11-13T23:18:31.058Z,23.27
2022-11-13T23:21:19.261Z,19.15
2022-11-13T23:24:06.655Z,18.83
2022-11-13T23:26:54.893Z,21.08
2022-11-13T23:29:45.903Z,19.52
2022-11-13T23:32:35.912Z,23.38
2022-11-13T23:35:22.919Z,17.70
2022-11-13T23:38:10.002Z,16.83
2022-11-13T23:40:58.537Z,13.55
2022-11-13T23:44:07.584Z,16.90
2022-11-13T23:46:54.010Z,11.65
2022-11-13T23:49:40.837Z,13.38
2022-11-13T23:52:27.578Z,12.52
2022-11-13T23:55:14.656Z,13.75
2022-11-13T23:58:03.531Z,11.38
